Ana Sayfa
METAR-TAF:

METAR-TAF

Havaalanları :

Clinton / Burns Flat, Oklahoma, Amerika Birleşik Devletleri

Enlem: 35-21-24N, Boylam: 099-12-13W, yükseklik: 585 m

Güncel hava durumu gözlemi

Rapor saat 21:53 UTC de 36 dakika önce yapıldı.
Rüzgar güneydan 20 kt ve 24 kt'a kadar ani rüzgarlar
Sıcaklık 10°C
Nem 57%
Basınç 1025 hPa
Görüş mesafesi: 16.1 km
Açık gökyüzü

METAR: KCSM 112153Z AUTO 18020G24KT 10SM CLR 10/02 A3028 RMK AO2 PK WND 18026/2136 SLP258 T01000022 $

Saat: 16:29 (22:29 UTC)

Tahmin

Rapor saat 17:20 UTC de 5 saat ve 9 dakika önce yapıldı.
Ayın 11'si saat 18 UTC'den ayın 12'si saat 18 UTC'ye kadar geçerli Tahmin
Rüzgar güneydan 17 kt ve 23 kt'a kadar ani rüzgarlar
Görüş mesafesi: 10 km
5000 ft yükseklikte parçalı bulutlu

TAF: KCSM 111720Z 1118/1218 18017G23KT P6SM SCT050

4.000'den fazla havaalanı için hava durumu gözlemleri ve tahminleri (METAR ve TAF raporları).

Kullanılabilir istasyonlar harita üzerinde sarı ve kırmızı noktalarla gösterilir.

İstasyonun adını görmek için fareyi noktanın üzerinde gezdirin.

Sonrasında hava gözlem ve tahminlerini görmek için tıklayın.

Haritayı değiştirmek için: yaklaştırmak için siyah artı işaretli yeşil düğmeye ve uzaklaştırmak için de eksi işaretli düğmeye hızla tıklayın; bitişik haritalar için yeşil okları kullanın.


METAR-TAF: